sensor_id;sensor_type;location;lat;lon;timestamp;pressure;altitude;pressure_sealevel;temperature;humidity
62402;BME280;48440;51.224;22.506;2023-02-23T00:02:00;99605.31;;;0.72;71.27
62402;BME280;48440;51.224;22.506;2023-02-23T00:04:33;99603.47;;;0.73;71.58
62402;BME280;48440;51.224;22.506;2023-02-23T00:06:58;99604.50;;;0.72;71.56
62402;BME280;48440;51.224;22.506;2023-02-23T00:09:23;99602.28;;;0.75;71.07
62402;BME280;48440;51.224;22.506;2023-02-23T00:11:53;99611.50;;;0.73;71.23
62402;BME280;48440;51.224;22.506;2023-02-23T00:14:22;99597.38;;;0.79;71.21
62402;BME280;48440;51.224;22.506;2023-02-23T00:16:51;99602.09;;;0.77;71.21
62402;BME280;48440;51.224;22.506;2023-02-23T00:19:18;99607.44;;;0.77;71.15
62402;BME280;48440;51.224;22.506;2023-02-23T00:21:44;99606.50;;;0.70;71.14
62402;BME280;48440;51.224;22.506;2023-02-23T00:24:12;99608.06;;;0.64;71.37
62402;BME280;48440;51.224;22.506;2023-02-23T00:26:44;99611.94;;;0.61;72.21
62402;BME280;48440;51.224;22.506;2023-02-23T00:29:17;99603.56;;;0.64;71.84
62402;BME280;48440;51.224;22.506;2023-02-23T00:31:44;99605.75;;;0.61;71.69
62402;BME280;48440;51.224;22.506;2023-02-23T00:34:11;99608.63;;;0.59;71.33
62402;BME280;48440;51.224;22.506;2023-02-23T00:36:37;99605.28;;;0.57;71.61
62402;BME280;48440;51.224;22.506;2023-02-23T00:39:09;99603.44;;;0.58;71.29
62402;BME280;48440;51.224;22.506;2023-02-23T00:41:51;99602.44;;;0.59;71.35
62402;BME280;48440;51.224;22.506;2023-02-23T00:44:18;99600.22;;;0.62;71.30
62402;BME280;48440;51.224;22.506;2023-02-23T00:46:45;99600.78;;;0.58;71.01
62402;BME280;48440;51.224;22.506;2023-02-23T00:49:15;99602.91;;;0.62;71.06
62402;BME280;48440;51.224;22.506;2023-02-23T00:51:41;99595.44;;;0.58;70.45
62402;BME280;48440;51.224;22.506;2023-02-23T00:54:11;99608.97;;;0.56;70.41
62402;BME280;48440;51.224;22.506;2023-02-23T00:56:37;99605.66;;;0.54;69.71
62402;BME280;48440;51.224;22.506;2023-02-23T00:59:04;99601.06;;;0.48;69.89
62402;BME280;48440;51.224;22.506;2023-02-23T01:01:29;99607.59;;;0.46;69.54
62402;BME280;48440;51.224;22.506;2023-02-23T01:03:55;99611.47;;;0.43;69.13
62402;BME280;48440;51.224;22.506;2023-02-23T01:06:21;99603.81;;;0.40;68.80
62402;BME280;48440;51.224;22.506;2023-02-23T01:08:48;99612.44;;;0.27;68.63
62402;BME280;48440;51.224;22.506;2023-02-23T01:11:17;99616.31;;;0.25;68.87
62402;BME280;48440;51.224;22.506;2023-02-23T01:13:44;99612.81;;;0.24;68.77
62402;BME280;48440;51.224;22.506;2023-02-23T01:16:15;99612.69;;;0.18;69.17
62402;BME280;48440;51.224;22.506;2023-02-23T01:18:42;99615.19;;;0.19;69.27
62402;BME280;48440;51.224;22.506;2023-02-23T01:21:38;99608.09;;;0.26;69.11
62402;BME280;48440;51.224;22.506;2023-02-23T01:24:03;99609.66;;;0.21;68.77
62402;BME280;48440;51.224;22.506;2023-02-23T01:26:36;99616.09;;;0.26;69.16
62402;BME280;48440;51.224;22.506;2023-02-23T01:29:14;99601.38;;;0.30;68.83
62402;BME280;48440;51.224;22.506;2023-02-23T01:31:43;99611.22;;;0.30;68.44
62402;BME280;48440;51.224;22.506;2023-02-23T01:34:11;99600.09;;;0.26;68.02
62402;BME280;48440;51.224;22.506;2023-02-23T01:36:38;99607.38;;;0.32;68.49
62402;BME280;48440;51.224;22.506;2023-02-23T01:39:06;99603.03;;;0.31;68.22
62402;BME280;48440;51.224;22.506;2023-02-23T01:41:34;99605.72;;;0.31;68.28
62402;BME280;48440;51.224;22.506;2023-02-23T01:46:34;99606.06;;;0.28;68.65
62402;BME280;48440;51.224;22.506;2023-02-23T01:49:00;99596.41;;;0.27;68.87
62402;BME280;48440;51.224;22.506;2023-02-23T01:51:36;99598.19;;;0.35;68.67
62402;BME280;48440;51.224;22.506;2023-02-23T01:54:12;99592.66;;;0.37;68.13
62402;BME280;48440;51.224;22.506;2023-02-23T01:56:46;99589.16;;;0.36;67.80
62402;BME280;48440;51.224;22.506;2023-02-23T01:59:13;99587.50;;;0.35;67.25
62402;BME280;48440;51.224;22.506;2023-02-23T02:01:41;99590.53;;;0.32;66.53
62402;BME280;48440;51.224;22.506;2023-02-23T02:04:08;99588.31;;;0.36;66.40
62402;BME280;48440;51.224;22.506;2023-02-23T02:06:42;99582.06;;;0.28;66.11
62402;BME280;48440;51.224;22.506;2023-02-23T02:09:12;99582.88;;;0.29;66.59
62402;BME280;48440;51.224;22.506;2023-02-23T02:11:42;99584.53;;;0.30;66.24
62402;BME280;48440;51.224;22.506;2023-02-23T02:14:21;99584.91;;;0.27;65.81
62402;BME280;48440;51.224;22.506;2023-02-23T02:38:53;99590.63;;;0.24;65.11
62402;BME280;48440;51.224;22.506;2023-02-23T02:44:14;99586.66;;;0.20;65.21
62402;BME280;48440;51.224;22.506;2023-02-23T02:46:47;99587.56;;;0.27;65.24
62402;BME280;48440;51.224;22.506;2023-02-23T02:49:38;99589.03;;;0.15;65.36
62402;BME280;48440;51.224;22.506;2023-02-23T02:55:04;99583.16;;;0.19;65.75
62402;BME280;48440;51.224;22.506;2023-02-23T02:57:33;99584.16;;;0.18;65.91
62402;BME280;48440;51.224;22.506;2023-02-23T03:00:00;99588.50;;;0.19;66.12
62402;BME280;48440;51.224;22.506;2023-02-23T03:02:45;99593.19;;;0.17;65.46
62402;BME280;48440;51.224;22.506;2023-02-23T03:05:44;99593.38;;;0.16;65.67
62402;BME280;48440;51.224;22.506;2023-02-23T03:08:53;99588.03;;;0.16;66.07
62402;BME280;48440;51.224;22.506;2023-02-23T03:11:54;99584.06;;;0.12;66.26
62402;BME280;48440;51.224;22.506;2023-02-23T03:17:48;99593.72;;;0.13;66.34
62402;BME280;48440;51.224;22.506;2023-02-23T03:20:42;99586.25;;;0.08;66.59
62402;BME280;48440;51.224;22.506;2023-02-23T03:23:47;99588.44;;;0.05;66.57
62402;BME280;48440;51.224;22.506;2023-02-23T03:27:03;99592.47;;;0.00;66.49
62402;BME280;48440;51.224;22.506;2023-02-23T03:32:50;99585.88;;;-0.04;67.12
62402;BME280;48440;51.224;22.506;2023-02-23T03:35:49;99592.03;;;-0.03;66.93
62402;BME280;48440;51.224;22.506;2023-02-23T03:38:40;99592.22;;;-0.05;67.11
62402;BME280;48440;51.224;22.506;2023-02-23T03:41:29;99592.56;;;-0.08;66.72
62402;BME280;48440;51.224;22.506;2023-02-23T03:44:23;99592.38;;;-0.06;67.00
62402;BME280;48440;51.224;22.506;2023-02-23T03:47:11;99589.25;;;-0.10;67.14
62402;BME280;48440;51.224;22.506;2023-02-23T03:50:00;99586.22;;;-0.07;66.94
62402;BME280;48440;51.224;22.506;2023-02-23T03:52:49;99591.91;;;-0.10;67.21
62402;BME280;48440;51.224;22.506;2023-02-23T03:55:38;99586.09;;;-0.13;66.74
62402;BME280;48440;51.224;22.506;2023-02-23T03:58:31;99584.97;;;-0.19;67.07
62402;BME280;48440;51.224;22.506;2023-02-23T04:01:18;99584.78;;;-0.17;67.66
62402;BME280;48440;51.224;22.506;2023-02-23T04:04:04;99584.63;;;-0.16;67.08
62402;BME280;48440;51.224;22.506;2023-02-23T04:06:52;99581.41;;;-0.11;67.00
62402;BME280;48440;51.224;22.506;2023-02-23T04:09:38;99586.56;;;-0.10;67.09
62402;BME280;48440;51.224;22.506;2023-02-23T04:15:47;99582.66;;;-0.22;67.18
62402;BME280;48440;51.224;22.506;2023-02-23T04:18:14;99584.31;;;-0.21;67.65
62402;BME280;48440;51.224;22.506;2023-02-23T04:20:40;99581.66;;;-0.21;67.43
62402;BME280;48440;51.224;22.506;2023-02-23T04:23:06;99579.91;;;-0.28;67.72
62402;BME280;48440;51.224;22.506;2023-02-23T04:25:32;99578.28;;;-0.38;67.86
62402;BME280;48440;51.224;22.506;2023-02-23T04:27:58;99579.78;;;-0.35;68.28
62402;BME280;48440;51.224;22.506;2023-02-23T04:30:24;99577.22;;;-0.28;67.95
62402;BME280;48440;51.224;22.506;2023-02-23T04:32:51;99589.25;;;-0.32;68.27
62402;BME280;48440;51.224;22.506;2023-02-23T04:35:17;99590.09;;;-0.32;68.35
62402;BME280;48440;51.224;22.506;2023-02-23T04:37:43;99581.44;;;-0.34;68.39
62402;BME280;48440;51.224;22.506;2023-02-23T04:40:09;99585.41;;;-0.30;68.43
62402;BME280;48440;51.224;22.506;2023-02-23T04:42:37;99587.91;;;-0.28;68.70
62402;BME280;48440;51.224;22.506;2023-02-23T04:45:03;99587.91;;;-0.28;68.43
62402;BME280;48440;51.224;22.506;2023-02-23T04:47:29;99587.91;;;-0.28;68.90
62402;BME280;48440;51.224;22.506;2023-02-23T04:49:54;99592.84;;;-0.25;68.87
62402;BME280;48440;51.224;22.506;2023-02-23T04:52:20;99590.84;;;-0.23;68.72
62402;BME280;48440;51.224;22.506;2023-02-23T04:54:46;99587.81;;;-0.20;68.88
62402;BME280;48440;51.224;22.506;2023-02-23T04:57:12;99594.50;;;-0.24;68.48
62402;BME280;48440;51.224;22.506;2023-02-23T04:59:38;99592.16;;;-0.19;68.60
62402;BME280;48440;51.224;22.506;2023-02-23T05:02:03;99592.22;;;-0.27;68.49
62402;BME280;48440;51.224;22.506;2023-02-23T05:04:29;99588.56;;;-0.26;68.01
62402;BME280;48440;51.224;22.506;2023-02-23T05:06:55;99589.34;;;-0.26;68.20
62402;BME280;48440;51.224;22.506;2023-02-23T05:09:20;99589.56;;;-0.27;68.27
62402;BME280;48440;51.224;22.506;2023-02-23T05:11:46;99599.28;;;-0.35;67.81
62402;BME280;48440;51.224;22.506;2023-02-23T05:14:12;99597.44;;;-0.34;67.73
62402;BME280;48440;51.224;22.506;2023-02-23T05:16:38;99600.09;;;-0.34;67.57
62402;BME280;48440;51.224;22.506;2023-02-23T05:19:04;99595.88;;;-0.51;67.50
62402;BME280;48440;51.224;22.506;2023-02-23T05:21:29;99602.69;;;-0.49;67.59
62402;BME280;48440;51.224;22.506;2023-02-23T05:23:55;99594.63;;;-0.41;67.82
62402;BME280;48440;51.224;22.506;2023-02-23T05:26:21;99600.47;;;-0.37;67.45
62402;BME280;48440;51.224;22.506;2023-02-23T05:28:48;99600.28;;;-0.36;67.00
62402;BME280;48440;51.224;22.506;2023-02-23T05:31:14;99597.44;;;-0.34;66.79
62402;BME280;48440;51.224;22.506;2023-02-23T05:33:40;99601.47;;;-0.38;65.66
62402;BME280;48440;51.224;22.506;2023-02-23T05:36:14;99596.13;;;-0.38;65.33
62402;BME280;48440;51.224;22.506;2023-02-23T05:38:42;99598.78;;;-0.38;65.15
62402;BME280;48440;51.224;22.506;2023-02-23T05:41:09;99600.09;;;-0.34;65.20
62402;BME280;48440;51.224;22.506;2023-02-23T05:43:36;99603.44;;;-0.32;65.12
62402;BME280;48440;51.224;22.506;2023-02-23T05:46:22;99596.06;;;-0.30;64.78
62402;BME280;48440;51.224;22.506;2023-02-23T05:48:50;99598.09;;;-0.32;64.21
62402;BME280;48440;51.224;22.506;2023-02-23T05:51:16;99601.59;;;-0.31;64.04
62402;BME280;48440;51.224;22.506;2023-02-23T05:53:43;99605.97;;;-0.39;64.05
62402;BME280;48440;51.224;22.506;2023-02-23T05:56:13;99602.16;;;-0.44;63.99
62402;BME280;48440;51.224;22.506;2023-02-23T05:58:44;99617.69;;;-0.48;64.24
62402;BME280;48440;51.224;22.506;2023-02-23T06:01:19;99614.19;;;-0.48;64.11
62402;BME280;48440;51.224;22.506;2023-02-23T06:03:45;99613.31;;;-0.41;64.24
62402;BME280;48440;51.224;22.506;2023-02-23T06:06:12;99611.59;;;-0.33;63.78
62402;BME280;48440;51.224;22.506;2023-02-23T06:08:37;99616.41;;;-0.29;63.26
62402;BME280;48440;51.224;22.506;2023-02-23T06:11:03;99608.84;;;-0.25;63.08
62402;BME280;48440;51.224;22.506;2023-02-23T06:13:29;99619.94;;;-0.37;63.23
62402;BME280;48440;51.224;22.506;2023-02-23T06:15:56;99622.84;;;-0.46;63.25
62402;BME280;48440;51.224;22.506;2023-02-23T06:18:22;99623.97;;;-0.41;63.54
62402;BME280;48440;51.224;22.506;2023-02-23T06:20:47;99622.28;;;-0.33;63.18
62402;BME280;48440;51.224;22.506;2023-02-23T06:23:13;99630.63;;;-0.37;62.78
62402;BME280;48440;51.224;22.506;2023-02-23T06:25:41;99624.94;;;-0.33;62.72
62402;BME280;48440;51.224;22.506;2023-02-23T06:28:07;99625.06;;;-0.27;62.81
62402;BME280;48440;51.224;22.506;2023-02-23T06:30:34;99628.34;;;-0.25;62.44
62402;BME280;48440;51.224;22.506;2023-02-23T06:33:00;99629.00;;;-0.23;62.82
62402;BME280;48440;51.224;22.506;2023-02-23T06:35:46;99628.19;;;-0.23;62.60
62402;BME280;48440;51.224;22.506;2023-02-23T06:38:15;99629.66;;;-0.21;62.43
62402;BME280;48440;51.224;22.506;2023-02-23T06:40:43;99627.47;;;-0.17;61.95
62402;BME280;48440;51.224;22.506;2023-02-23T06:43:09;99631.31;;;-0.20;61.44
62402;BME280;48440;51.224;22.506;2023-02-23T06:45:35;99619.66;;;-0.19;62.03
62402;BME280;48440;51.224;22.506;2023-02-23T06:48:00;99631.28;;;-0.12;61.95
62402;BME280;48440;51.224;22.506;2023-02-23T06:50:26;99632.47;;;-0.14;61.83
62402;BME280;48440;51.224;22.506;2023-02-23T06:52:52;99618.66;;;-0.18;61.62
62402;BME280;48440;51.224;22.506;2023-02-23T06:55:18;99629.63;;;-0.13;61.67
62402;BME280;48440;51.224;22.506;2023-02-23T06:57:44;99630.03;;;-0.01;61.70
62402;BME280;48440;51.224;22.506;2023-02-23T07:00:13;99624.44;;;0.09;61.69
62402;BME280;48440;51.224;22.506;2023-02-23T07:02:40;99623.78;;;0.07;61.05
62402;BME280;48440;51.224;22.506;2023-02-23T07:05:06;99620.06;;;0.16;60.62
62402;BME280;48440;51.224;22.506;2023-02-23T07:07:32;99622.66;;;0.01;60.72
62402;BME280;48440;51.224;22.506;2023-02-23T07:09:58;99622.97;;;0.06;61.01
62402;BME280;48440;51.224;22.506;2023-02-23T07:12:24;99623.63;;;0.08;60.62
62402;BME280;48440;51.224;22.506;2023-02-23T07:14:50;99626.47;;;0.07;60.74
62402;BME280;48440;51.224;22.506;2023-02-23T07:17:15;99621.94;;;0.07;60.52
62402;BME280;48440;51.224;22.506;2023-02-23T07:19:42;99626.09;;;0.10;60.35
62402;BME280;48440;51.224;22.506;2023-02-23T07:22:08;99624.75;;;0.14;60.84
62402;BME280;48440;51.224;22.506;2023-02-23T07:24:34;99621.34;;;0.20;60.98
62402;BME280;48440;51.224;22.506;2023-02-23T07:27:00;99619.03;;;0.17;61.02
62402;BME280;48440;51.224;22.506;2023-02-23T07:29:26;99608.22;;;0.33;60.82
62402;BME280;48440;51.224;22.506;2023-02-23T07:31:53;99617.34;;;0.39;59.92
62402;BME280;48440;51.224;22.506;2023-02-23T07:34:18;99617.34;;;0.53;59.21
62402;BME280;48440;51.224;22.506;2023-02-23T07:36:44;99620.22;;;0.52;59.55
62402;BME280;48440;51.224;22.506;2023-02-23T07:39:10;99618.81;;;0.41;59.36
62402;BME280;48440;51.224;22.506;2023-02-23T07:41:35;99616.63;;;0.45;59.48
62402;BME280;48440;51.224;22.506;2023-02-23T07:44:01;99626.25;;;0.31;59.38
62402;BME280;48440;51.224;22.506;2023-02-23T07:46:26;99619.47;;;0.58;59.62
62402;BME280;48440;51.224;22.506;2023-02-23T07:48:52;99610.47;;;0.74;59.46
62402;BME280;48440;51.224;22.506;2023-02-23T07:51:18;99612.56;;;0.78;58.62
62402;BME280;48440;51.224;22.506;2023-02-23T07:53:44;99611.84;;;0.84;58.38
62402;BME280;48440;51.224;22.506;2023-02-23T07:56:11;99608.81;;;1.02;58.82
62402;BME280;48440;51.224;22.506;2023-02-23T07:58:41;99597.16;;;1.10;58.06
62402;BME280;48440;51.224;22.506;2023-02-23T08:01:11;99602.38;;;1.32;57.51
62402;BME280;48440;51.224;22.506;2023-02-23T08:03:37;99608.00;;;1.38;56.73
62402;BME280;48440;51.224;22.506;2023-02-23T08:06:04;99599.28;;;1.29;57.12
62402;BME280;48440;51.224;22.506;2023-02-23T08:08:30;99587.78;;;1.50;56.57
62402;BME280;48440;51.224;22.506;2023-02-23T08:11:03;99599.59;;;1.77;56.29
62402;BME280;48440;51.224;22.506;2023-02-23T08:13:30;99592.88;;;2.36;54.46
62402;BME280;48440;51.224;22.506;2023-02-23T08:15:57;99592.09;;;2.70;53.46
62402;BME280;48440;51.224;22.506;2023-02-23T08:18:23;99601.56;;;3.62;51.12
62402;BME280;48440;51.224;22.506;2023-02-23T08:20:49;99593.53;;;3.62;50.94
62402;BME280;48440;51.224;22.506;2023-02-23T08:23:15;99609.09;;;2.84;51.38
62402;BME280;48440;51.224;22.506;2023-02-23T08:25:44;99586.63;;;2.92;51.92
62402;BME280;48440;51.224;22.506;2023-02-23T08:28:09;99579.34;;;2.45;53.06
62402;BME280;48440;51.224;22.506;2023-02-23T08:30:35;99590.78;;;2.04;53.43
62402;BME280;48440;51.224;22.506;2023-02-23T08:33:01;99590.59;;;2.06;54.24
62402;BME280;48440;51.224;22.506;2023-02-23T08:35:27;99585.97;;;2.49;53.46
62402;BME280;48440;51.224;22.506;2023-02-23T08:37:56;99580.72;;;3.70;50.71
62402;BME280;48440;51.224;22.506;2023-02-23T08:40:25;99570.88;;;4.11;49.05
62402;BME280;48440;51.224;22.506;2023-02-23T08:42:51;99593.13;;;4.77;47.73
62402;BME280;48440;51.224;22.506;2023-02-23T08:45:18;99571.25;;;4.60;46.78
62402;BME280;48440;51.224;22.506;2023-02-23T08:47:44;99574.63;;;5.07;46.83
62402;BME280;48440;51.224;22.506;2023-02-23T08:52:43;99580.06;;;5.76;44.43
62402;BME280;48440;51.224;22.506;2023-02-23T08:55:12;99567.47;;;4.88;45.85
62402;BME280;48440;51.224;22.506;2023-02-23T08:57:38;99581.38;;;4.45;47.22
62402;BME280;48440;51.224;22.506;2023-02-23T09:00:04;99582.22;;;4.06;48.37
62402;BME280;48440;51.224;22.506;2023-02-23T09:02:41;99570.59;;;3.66;48.68
62402;BME280;48440;51.224;22.506;2023-02-23T09:05:08;99572.91;;;3.82;48.47
62402;BME280;48440;51.224;22.506;2023-02-23T09:07:33;99582.00;;;4.01;47.68
62402;BME280;48440;51.224;22.506;2023-02-23T09:09:59;99572.94;;;4.08;47.54
62402;BME280;48440;51.224;22.506;2023-02-23T09:12:25;99578.28;;;4.55;47.06
62402;BME280;48440;51.224;22.506;2023-02-23T09:14:54;99565.53;;;5.08;45.84
62402;BME280;48440;51.224;22.506;2023-02-23T09:17:31;99565.94;;;5.11;45.35
62402;BME280;48440;51.224;22.506;2023-02-23T09:19:57;99569.88;;;5.47;45.02
62402;BME280;48440;51.224;22.506;2023-02-23T09:26:05;99562.41;;;6.19;43.16
62402;BME280;48440;51.224;22.506;2023-02-23T09:28:43;99562.94;;;6.02;43.84
62402;BME280;48440;51.224;22.506;2023-02-23T09:31:23;99567.63;;;6.38;43.34
62402;BME280;48440;51.224;22.506;2023-02-23T09:34:11;99566.28;;;6.91;42.33
62402;BME280;48440;51.224;22.506;2023-02-23T09:36:48;99563.78;;;6.71;41.88
62402;BME280;48440;51.224;22.506;2023-02-23T10:08:38;99546.59;;;7.68;40.79
62402;BME280;48440;51.224;22.506;2023-02-23T10:23:14;99534.84;;;6.78;43.14
62402;BME280;48440;51.224;22.506;2023-02-23T10:29:23;99534.56;;;7.04;42.18
62402;BME280;48440;51.224;22.506;2023-02-23T10:34:51;99525.50;;;6.62;43.22
62402;BME280;48440;51.224;22.506;2023-02-23T10:37:23;99522.91;;;6.74;43.12
62402;BME280;48440;51.224;22.506;2023-02-23T10:39:55;99513.81;;;6.68;43.40
62402;BME280;48440;51.224;22.506;2023-02-23T10:42:27;99506.03;;;6.97;42.71
62402;BME280;48440;51.224;22.506;2023-02-23T10:44:56;99504.97;;;6.98;43.10
62402;BME280;48440;51.224;22.506;2023-02-23T10:47:29;99507.19;;;7.19;42.75
62402;BME280;48440;51.224;22.506;2023-02-23T10:50:25;99494.06;;;7.04;43.11
62402;BME280;48440;51.224;22.506;2023-02-23T10:52:58;99492.06;;;7.30;42.51
62402;BME280;48440;51.224;22.506;2023-02-23T10:58:54;99488.84;;;6.91;43.19
62402;BME280;48440;51.224;22.506;2023-02-23T11:01:37;99481.69;;;6.67;43.82
62402;BME280;48440;51.224;22.506;2023-02-23T11:04:25;99466.31;;;6.86;44.04
62402;BME280;48440;51.224;22.506;2023-02-23T11:10:27;99467.00;;;6.63;44.22
62402;BME280;48440;51.224;22.506;2023-02-23T11:16:50;99452.31;;;6.59;44.85
62402;BME280;48440;51.224;22.506;2023-02-23T11:19:28;99458.19;;;6.12;45.66
62402;BME280;48440;51.224;22.506;2023-02-23T11:22:05;99450.66;;;6.21;45.96
62402;BME280;48440;51.224;22.506;2023-02-23T11:24:45;99440.78;;;6.33;45.91
62402;BME280;48440;51.224;22.506;2023-02-23T11:27:21;99442.75;;;6.01;46.61
62402;BME280;48440;51.224;22.506;2023-02-23T11:29:53;99434.34;;;6.34;46.65
62402;BME280;48440;51.224;22.506;2023-02-23T11:32:32;99443.19;;;6.41;46.32
62402;BME280;48440;51.224;22.506;2023-02-23T11:37:43;99434.44;;;6.03;46.82
62402;BME280;48440;51.224;22.506;2023-02-23T11:42:55;99422.94;;;5.39;48.77
62402;BME280;48440;51.224;22.506;2023-02-23T11:45:24;99430.00;;;5.02;50.27
62402;BME280;48440;51.224;22.506;2023-02-23T11:47:53;99421.56;;;5.30;50.21
62402;BME280;48440;51.224;22.506;2023-02-23T11:50:44;99426.06;;;5.36;50.20
62402;BME280;48440;51.224;22.506;2023-02-23T11:53:15;99416.34;;;5.35;50.25
62402;BME280;48440;51.224;22.506;2023-02-23T11:55:51;99416.56;;;5.34;50.83
62402;BME280;48440;51.224;22.506;2023-02-23T12:01:20;99407.63;;;5.08;51.48
62402;BME280;48440;51.224;22.506;2023-02-23T12:03:53;99407.41;;;5.10;51.61
62402;BME280;48440;51.224;22.506;2023-02-23T12:08:57;99393.94;;;4.78;52.65
62402;BME280;48440;51.224;22.506;2023-02-23T12:11:29;99396.81;;;4.84;53.25
62402;BME280;48440;51.224;22.506;2023-02-23T12:16:49;99379.53;;;4.66;53.93
62402;BME280;48440;51.224;22.506;2023-02-23T12:21:49;99366.44;;;4.76;53.98
62402;BME280;48440;51.224;22.506;2023-02-23T12:24:30;99370.31;;;4.87;54.28
62402;BME280;48440;51.224;22.506;2023-02-23T12:27:15;99385.09;;;5.03;53.88
62402;BME280;48440;51.224;22.506;2023-02-23T12:37:57;99357.06;;;4.54;55.02
62402;BME280;48440;51.224;22.506;2023-02-23T12:40:31;99353.78;;;4.46;55.85
62402;BME280;48440;51.224;22.506;2023-02-23T12:43:18;99355.38;;;4.60;55.91
62402;BME280;48440;51.224;22.506;2023-02-23T12:48:49;99344.88;;;4.52;55.59
62402;BME280;48440;51.224;22.506;2023-02-23T12:53:52;99351.34;;;4.37;55.96
62402;BME280;48440;51.224;22.506;2023-02-23T12:56:32;99344.78;;;4.27;56.63
62402;BME280;48440;51.224;22.506;2023-02-23T13:01:57;99322.25;;;4.21;57.14
62402;BME280;48440;51.224;22.506;2023-02-23T13:07:21;99332.22;;;4.14;57.49
62402;BME280;48440;51.224;22.506;2023-02-23T13:15:31;99300.72;;;4.34;57.52
62402;BME280;48440;51.224;22.506;2023-02-23T13:23:48;99299.56;;;4.17;56.94
62402;BME280;48440;51.224;22.506;2023-02-23T13:29:05;99283.09;;;4.07;57.86
62402;BME280;48440;51.224;22.506;2023-02-23T13:31:36;99284.75;;;4.01;58.32
62402;BME280;48440;51.224;22.506;2023-02-23T13:34:05;99277.94;;;4.05;58.35
62402;BME280;48440;51.224;22.506;2023-02-23T13:36:34;99277.13;;;3.92;58.36
62402;BME280;48440;51.224;22.506;2023-02-23T13:53:38;99268.13;;;4.18;58.32
62402;BME280;48440;51.224;22.506;2023-02-23T13:56:07;99248.78;;;4.09;58.48
62402;BME280;48440;51.224;22.506;2023-02-23T13:58:34;99254.81;;;3.98;59.00
62402;BME280;48440;51.224;22.506;2023-02-23T14:01:10;99249.25;;;3.93;59.25
62402;BME280;48440;51.224;22.506;2023-02-23T14:03:58;99251.13;;;3.92;59.48
62402;BME280;48440;51.224;22.506;2023-02-23T14:06:27;99243.47;;;3.96;59.48
62402;BME280;48440;51.224;22.506;2023-02-23T14:11:45;99239.13;;;3.95;59.39
62402;BME280;48440;51.224;22.506;2023-02-23T14:14:15;99238.09;;;3.96;59.82
62402;BME280;48440;51.224;22.506;2023-02-23T14:20:05;99237.53;;;3.87;59.30
62402;BME280;48440;51.224;22.506;2023-02-23T14:28:22;99235.28;;;3.78;59.11
62402;BME280;48440;51.224;22.506;2023-02-23T14:31:19;99227.03;;;3.72;59.19
62402;BME280;48440;51.224;22.506;2023-02-23T14:38:49;99238.66;;;3.53;59.67
62402;BME280;48440;51.224;22.506;2023-02-23T14:41:46;99228.75;;;3.60;59.91
62402;BME280;48440;51.224;22.506;2023-02-23T14:44:36;99231.66;;;3.52;60.00
62402;BME280;48440;51.224;22.506;2023-02-23T14:47:12;99230.19;;;3.56;60.31
62402;BME280;48440;51.224;22.506;2023-02-23T14:50:03;99219.47;;;3.56;60.07
62402;BME280;48440;51.224;22.506;2023-02-23T14:52:34;99212.28;;;3.44;60.49
62402;BME280;48440;51.224;22.506;2023-02-23T14:57:37;99201.31;;;3.52;60.40
62402;BME280;48440;51.224;22.506;2023-02-23T15:00:27;99189.56;;;3.46;60.53
62402;BME280;48440;51.224;22.506;2023-02-23T15:03:03;99193.47;;;3.50;60.73
62402;BME280;48440;51.224;22.506;2023-02-23T15:05:33;99196.78;;;3.52;60.60
62402;BME280;48440;51.224;22.506;2023-02-23T15:08:03;99193.06;;;3.47;61.08
62402;BME280;48440;51.224;22.506;2023-02-23T15:10:33;99186.25;;;3.51;60.96
62402;BME280;48440;51.224;22.506;2023-02-23T15:13:00;99181.91;;;3.50;61.01
62402;BME280;48440;51.224;22.506;2023-02-23T15:15:32;99186.47;;;3.42;61.27
62402;BME280;48440;51.224;22.506;2023-02-23T15:18:00;99186.06;;;3.39;61.36
62402;BME280;48440;51.224;22.506;2023-02-23T15:20:31;99171.81;;;3.45;61.00
62402;BME280;48440;51.224;22.506;2023-02-23T15:23:00;99178.03;;;3.39;61.04
62402;BME280;48440;51.224;22.506;2023-02-23T15:25:35;99171.84;;;3.38;61.52
62402;BME280;48440;51.224;22.506;2023-02-23T15:28:31;99159.28;;;3.32;61.62
62402;BME280;48440;51.224;22.506;2023-02-23T15:31:01;99164.03;;;3.24;61.94
62402;BME280;48440;51.224;22.506;2023-02-23T15:33:28;99162.38;;;3.29;61.90
62402;BME280;48440;51.224;22.506;2023-02-23T15:36:15;99150.63;;;3.24;62.60
62402;BME280;48440;51.224;22.506;2023-02-23T15:38:46;99144.03;;;3.26;62.20
62402;BME280;48440;51.224;22.506;2023-02-23T15:41:28;99145.69;;;3.21;62.77
62402;BME280;48440;51.224;22.506;2023-02-23T15:44:08;99137.22;;;3.24;62.55
62402;BME280;48440;51.224;22.506;2023-02-23T15:46:36;99135.19;;;3.19;62.68
62402;BME280;48440;51.224;22.506;2023-02-23T15:49:03;99133.94;;;3.15;63.32
62402;BME280;48440;51.224;22.506;2023-02-23T15:51:37;99139.50;;;3.14;63.07
62402;BME280;48440;51.224;22.506;2023-02-23T15:54:29;99134.38;;;3.12;63.29
62402;BME280;48440;51.224;22.506;2023-02-23T15:57:01;99141.63;;;3.12;63.38
62402;BME280;48440;51.224;22.506;2023-02-23T15:59:29;99138.09;;;3.11;63.50
62402;BME280;48440;51.224;22.506;2023-02-23T16:01:58;99126.97;;;3.08;64.08
62402;BME280;48440;51.224;22.506;2023-02-23T16:04:30;99132.13;;;3.02;64.14
62402;BME280;48440;51.224;22.506;2023-02-23T16:09:51;99125.13;;;3.01;64.07
62402;BME280;48440;51.224;22.506;2023-02-23T16:12:34;99123.91;;;2.97;63.87
62402;BME280;48440;51.224;22.506;2023-02-23T16:15:03;99121.44;;;2.96;63.95
62402;BME280;48440;51.224;22.506;2023-02-23T16:17:34;99118.13;;;2.94;64.46
62402;BME280;48440;51.224;22.506;2023-02-23T16:20:15;99113.78;;;2.99;64.38
62402;BME280;48440;51.224;22.506;2023-02-23T16:22:42;99117.72;;;2.90;64.34
62402;BME280;48440;51.224;22.506;2023-02-23T16:25:15;99114.88;;;2.85;64.95
62402;BME280;48440;51.224;22.506;2023-02-23T16:27:43;99111.38;;;2.78;65.13
62402;BME280;48440;51.224;22.506;2023-02-23T16:30:37;99115.50;;;2.74;65.06
62402;BME280;48440;51.224;22.506;2023-02-23T16:33:20;99106.84;;;2.72;65.29
62402;BME280;48440;51.224;22.506;2023-02-23T16:35:49;99110.34;;;2.72;65.27